Terminal Aerodrome Forecast
Issued by NWS

Home | Current Version | Previous Version | Text Only | Print | Product List | Glossary On
Versions: 1 2 3 4 5 6 7 8 9 10 11 12 13 14 15 16
000
FTUS42 KTAE 251100
TAFABY
TAF
KABY 251138Z 2512/2612 21005KT P6SM SKC
     FM251500 25005KT P6SM SCT050 SCT250
     FM251800 25008KT P6SM VCTS BKN050CB
     FM260000 22005KT P6SM BKN250=

USA.gov is the U.S. government's official web portal to all federal, state and local government web resources and services.